ADDS METAR Data INFO
IDs: Format: Raw Decoded Include TAF

Data at: 0600 UTC 18 Jan 2018

METAR for:KVCT (Victoria Rgnl, TX, US)
Text:KVCT 180551Z AUTO 05004KT 10SM OVC075 02/M08 A3063 RMK AO2 SLP372 T00171078 10022 20011 400221061 58011
Temperature: 1.7°C ( 35°F)
Dewpoint: -7.8°C ( 18°F) [RH = 49%]
Pressure (altimeter):30.63 inches Hg (1037.3 mb) [Sea level pressure: 1037.2 mb]
Winds:from the NE (50 degrees) at 5 MPH (4 knots; 2.1 m/s)
Visibility:10 or more sm (16+ km)
Ceiling:7500 feet AGL
Clouds: overcast cloud deck at 7500 feet AGL
QC Flag:automated observation with no human augmentation